Time;durP1;ratioP1;P1;durP2;ratioP2;P2;SDS_P1;SDS_P2;PMS_P1;PMS_P2;Temp;Humidity;BMP_temperature;BMP_pressure;BME280_temperature;BME280_humidity;BME280_pressure;Samples;Min_cycle;Max_cycle;Signal;HPM_P1;HPM_P2
2022/07/04 00:01:10;;;;;;;;;;;;;;;;;;4919689;28;20692;-74
2022/07/04 00:03:37;;;;;;;;;;;;;;;;;;4942850;28;20387;-73
2022/07/04 00:06:04;;;;;;;;;;;;;;;;;;4943333;28;20078;-73
2022/07/04 00:08:31;;;;;;;;;;;;;;;;;;4941140;28;20352;-73
2022/07/04 00:10:59;;;;;;;;;;;;;;;;;;4943496;28;19921;-73
2022/07/04 00:13:26;;;;;;;;;;;;;;;;;;4935688;28;19969;-73
2022/07/04 00:15:53;;;;;;;;;;;;;;;;;;4922589;28;19914;-73
2022/07/04 00:18:19;;;;;;;;;;;;;;;;;;4900616;28;19914;-73
2022/07/04 00:20:45;;;;;;;;;;;;;;;;;;4940292;28;20379;-73
2022/07/04 00:23:14;;;;;;;;;;;;;;;;;;4940140;28;20712;-73
2022/07/04 00:25:41;;;;;;;;;;;;;;;;;;4918106;28;19918;-73
2022/07/04 00:28:07;;;;;;;;;;;;;;;;;;4926851;28;20367;-73
2022/07/04 00:30:33;;;;;;;;;;;;;;;;;;4946193;28;20346;-73
2022/07/04 00:32:59;;;;;;;;;;;;;;;;;;4924012;28;21482;-73
2022/07/04 00:35:25;;;;;;;;;;;;;;;;;;4940737;28;19921;-72
2022/07/04 00:37:51;;;;;;;;;;;;;;;;;;4942769;28;19914;-72
2022/07/04 00:40:18;;;;;;;;;;;;;;;;;;4937244;28;19914;-73
2022/07/04 00:42:45;;;;;;;;;;;;;;;;;;4923996;28;19929;-72
2022/07/04 00:45:12;;;;;;;;;;;;;;;;;;4938333;28;19949;-72
2022/07/04 00:47:38;;;;;;;;;;;;;;;;;;4921392;28;19914;-72
2022/07/04 00:50:05;;;;;;;;;;;;;;;;;;4942677;28;20372;-73
2022/07/04 00:52:31;;;;;;;;;;;;;;;;;;4915638;28;19914;-72
2022/07/04 00:55:00;;;;;;;;;;;;;;;;;;4942152;28;19993;-72
2022/07/04 00:57:28;;;;;;;;;;;;;;;;;;4937222;28;21133;-72
2022/07/04 00:59:58;;;;;;;;;;;;;;;;;;4939113;28;20364;-73
2022/07/04 01:02:28;;;;;;;;;;;;;;;;;;4937313;28;20790;-72
2022/07/04 01:04:55;;;;;;;;;;;;;;;;;;4940745;28;19945;-73
2022/07/04 01:07:26;;;;;;;;;;;;;;;;;;4917878;28;20921;-72
2022/07/04 01:09:56;;;;;;;;;;;;;;;;;;4936128;28;20000;-74
2022/07/04 01:12:23;;;;;;;;;;;;;;;;;;4937466;28;20000;-74
2022/07/04 01:14:49;;;;;;;;;;;;;;;;;;4940623;28;19969;-74
2022/07/04 01:17:16;;;;;;;;;;;;;;;;;;4931216;28;19914;-72
2022/07/04 01:19:44;;;;;;;;;;;;;;;;;;4921379;28;19914;-74
2022/07/04 01:22:11;;;;;;;;;;;;;;;;;;4940108;28;19918;-75
2022/07/04 01:24:37;;;;;;;;;;;;;;;;;;4916694;28;19962;-72
2022/07/04 01:27:04;;;;;;;;;;;;;;;;;;4940957;28;19922;-72
2022/07/04 01:29:31;;;;;;;;;;;;;;;;;;4938151;28;19914;-74
2022/07/04 01:31:58;;;;;;;;;;;;;;;;;;4924319;28;20008;-72
2022/07/04 01:34:25;;;;;;;;;;;;;;;;;;4934815;28;19914;-72
2022/07/04 01:36:51;;;;;;;;;;;;;;;;;;4936315;28;20467;-73
2022/07/04 01:39:18;;;;;;;;;;;;;;;;;;4936217;28;20301;-73
2022/07/04 01:41:44;;;;;;;;;;;;;;;;;;4939826;28;19925;-73
2022/07/04 01:44:11;;;;;;;;;;;;;;;;;;4936473;28;19914;-72
2022/07/04 01:46:38;;;;;;;;;;;;;;;;;;4922751;28;19921;-72
2022/07/04 01:49:06;;;;;;;;;;;;;;;;;;4936789;28;19980;-73
2022/07/04 01:51:32;;;;;;;;;;;;;;;;;;4910985;28;20008;-72
2022/07/04 01:53:59;;;;;;;;;;;;;;;;;;4948071;28;20642;-72
2022/07/04 01:56:26;;;;;;;;;;;;;;;;;;4952750;28;19945;-73
2022/07/04 01:58:52;;;;;;;;;;;;;;;;;;4932450;28;19914;-72
2022/07/04 02:01:31;;;;;;;;;;;;;;;;;;4929612;28;20079;-73
2022/07/04 02:03:59;;;;;;;;;;;;;;;;;;4920331;28;19922;-72
2022/07/04 02:06:25;;;;;;;;;;;;;;;;;;4922916;28;20475;-72
2022/07/04 02:14:21;;;;;;;;;;;;;;;;;;4915386;28;19949;-72
2022/07/04 02:16:47;;;;;;;;;;;;;;;;;;4912397;28;19921;-72
2022/07/04 02:19:13;;;;;;;;;;;;;;;;;;4916961;28;19959;-72
2022/07/04 02:21:43;;;;;;;;;;;;;;;;;;4919313;28;19922;-72
2022/07/04 02:24:11;;;;;;;;;;;;;;;;;;4916617;28;20868;-73
2022/07/04 02:26:39;;;;;;;;;;;;;;;;;;4899150;29;19925;-72
2022/07/04 02:29:06;;;;;;;;;;;;;;;;;;4898502;29;20349;-72
2022/07/04 02:31:33;;;;;;;;;;;;;;;;;;4899015;29;20424;-73
2022/07/04 02:33:59;;;;;;;;;;;;;;;;;;4898415;29;20056;-73
2022/07/04 02:36:26;;;;;;;;;;;;;;;;;;4894552;29;20000;-73
2022/07/04 02:38:52;;;;;;;;;;;;;;;;;;4898270;29;19922;-72
2022/07/04 02:41:19;;;;;;;;;;;;;;;;;;4894501;29;19915;-72
2022/07/04 02:43:46;;;;;;;;;;;;;;;;;;4879615;29;20043;-72
2022/07/04 02:46:13;;;;;;;;;;;;;;;;;;4893367;29;20405;-72
2022/07/04 02:48:40;;;;;;;;;;;;;;;;;;4899876;28;20606;-72
2022/07/04 02:51:06;;;;;;;;;;;;;;;;;;4908159;28;20392;-72
2022/07/04 02:53:32;;;;;;;;;;;;;;;;;;4909423;29;19914;-72
2022/07/04 02:56:03;;;;;;;;;;;;;;;;;;4921200;28;20010;-73
2022/07/04 02:58:31;;;;;;;;;;;;;;;;;;4920493;28;20345;-72
2022/07/04 03:00:58;;;;;;;;;;;;;;;;;;4922195;28;19945;-72
2022/07/04 03:03:25;;;;;;;;;;;;;;;;;;4905807;28;20089;-72
2022/07/04 03:05:52;;;;;;;;;;;;;;;;;;4921328;28;19921;-72
2022/07/04 03:08:19;;;;;;;;;;;;;;;;;;4917909;28;19914;-72
2022/07/04 03:10:47;;;;;;;;;;;;;;;;;;4921167;29;19926;-72
2022/07/04 03:13:13;;;;;;;;;;;;;;;;;;4915377;28;20369;-72
2022/07/04 03:15:40;;;;;;;;;;;;;;;;;;4924508;28;19930;-72
2022/07/04 03:18:06;;;;;;;;;;;;;;;;;;4915140;28;19932;-72
2022/07/04 03:20:32;;;;;;;;;;;;;;;;;;4923402;28;20393;-72
2022/07/04 03:22:59;;;;;;;;;;;;;;;;;;4918590;29;19918;-72
2022/07/04 03:25:26;;;;;;;;;;;;;;;;;;4910139;28;19965;-72
2022/07/04 03:27:53;;;;;;;;;;;;;;;;;;4936987;28;19921;-72
2022/07/04 03:30:20;;;;;;;;;;;;;;;;;;4939209;28;20398;-73
2022/07/04 03:32:46;;;;;;;;;;;;;;;;;;4942386;28;20580;-72
2022/07/04 03:35:13;;;;;;;;;;;;;;;;;;4938826;28;20255;-72
2022/07/04 03:37:40;;;;;;;;;;;;;;;;;;4924572;28;19913;-72
2022/07/04 03:40:07;;;;;;;;;;;;;;;;;;4939928;28;19945;-72
2022/07/04 03:42:33;;;;;;;;;;;;;;;;;;4942815;28;20357;-73
2022/07/04 03:45:01;;;;;;;;;;;;;;;;;;4940696;28;19915;-72
2022/07/04 03:47:31;;;;;;;;;;;;;;;;;;4941622;28;20371;-72
2022/07/04 03:49:58;;;;;;;;;;;;;;;;;;4941335;28;19941;-72
2022/07/04 03:52:23;;;;;;;;;;;;;;;;;;4922906;28;19918;-72
2022/07/04 03:54:50;;;;;;;;;;;;;;;;;;4940706;28;20009;-72
2022/07/04 03:57:17;;;;;;;;;;;;;;;;;;4939687;28;19915;-72
2022/07/04 03:59:45;;;;;;;;;;;;;;;;;;4941125;28;20258;-72
2022/07/04 04:02:12;;;;;;;;;;;;;;;;;;4923253;28;19998;-73
2022/07/04 04:07:24;;;;;;;;;;;;;;;;;;4933516;28;20382;-73
2022/07/04 04:09:51;;;;;;;;;;;;;;;;;;4942685;28;20365;-71
2022/07/04 04:12:17;;;;;;;;;;;;;;;;;;4934577;28;20466;-72
2022/07/04 04:14:44;;;;;;;;;;;;;;;;;;4925896;28;19918;-71
2022/07/04 04:17:11;;;;;;;;;;;;;;;;;;4934677;28;20326;-73
2022/07/04 04:19:38;;;;;;;;;;;;;;;;;;4940487;28;19915;-72
2022/07/04 04:22:05;;;;;;;;;;;;;;;;;;4943169;28;19925;-72
2022/07/04 04:24:31;;;;;;;;;;;;;;;;;;4935927;28;19925;-73
2022/07/04 04:26:59;;;;;;;;;;;;;;;;;;4943353;28;19918;-72
2022/07/04 04:29:26;;;;;;;;;;;;;;;;;;4938890;28;20431;-72
2022/07/04 04:31:53;;;;;;;;;;;;;;;;;;4923685;28;20599;-72
2022/07/04 04:34:21;;;;;;;;;;;;;;;;;;4935504;28;20261;-73
2022/07/04 04:36:48;;;;;;;;;;;;;;;;;;4936549;28;20282;-71
2022/07/04 04:39:14;;;;;;;;;;;;;;;;;;4919798;28;20467;-73
2022/07/04 04:41:41;;;;;;;;;;;;;;;;;;4936586;28;19962;-71
2022/07/04 04:44:08;;;;;;;;;;;;;;;;;;4935847;28;20017;-71
2022/07/04 04:46:38;;;;;;;;;;;;;;;;;;4933853;28;19941;-71
2022/07/04 04:49:05;;;;;;;;;;;;;;;;;;4936775;28;19910;-71
2022/07/04 04:51:31;;;;;;;;;;;;;;;;;;4933143;28;20437;-71
2022/07/04 04:53:59;;;;;;;;;;;;;;;;;;4924532;28;19957;-71
2022/07/04 04:56:26;;;;;;;;;;;;;;;;;;4921666;28;20427;-72
2022/07/04 04:58:53;;;;;;;;;;;;;;;;;;4939387;28;20225;-72
2022/07/04 05:01:20;;;;;;;;;;;;;;;;;;4937390;28;20332;-71
2022/07/04 05:03:46;;;;;;;;;;;;;;;;;;4938942;28;19926;-71
2022/07/04 05:06:12;;;;;;;;;;;;;;;;;;4920157;28;20422;-72
2022/07/04 05:08:40;;;;;;;;;;;;;;;;;;4940857;28;19918;-72
2022/07/04 05:11:06;;;;;;;;;;;;;;;;;;4925143;28;19921;-72
2022/07/04 05:13:33;;;;;;;;;;;;;;;;;;4935660;28;19918;-72
2022/07/04 05:16:00;;;;;;;;;;;;;;;;;;4938303;28;19918;-72
2022/07/04 05:18:28;;;;;;;;;;;;;;;;;;4932903;28;22308;-72
2022/07/04 05:20:56;;;;;;;;;;;;;;;;;;4939606;28;19917;-72
2022/07/04 05:23:23;;;;;;;;;;;;;;;;;;4919310;28;19941;-71
2022/07/04 05:25:49;;;;;;;;;;;;;;;;;;4939183;28;19922;-71
2022/07/04 05:28:17;;;;;;;;;;;;;;;;;;4932585;28;20357;-71
2022/07/04 05:30:43;;;;;;;;;;;;;;;;;;4939695;28;20432;-71
2022/07/04 05:33:11;;;;;;;;;;;;;;;;;;4933506;28;19921;-71
2022/07/04 05:35:41;;;;;;;;;;;;;;;;;;4943186;28;19914;-72
2022/07/04 05:38:07;;;;;;;;;;;;;;;;;;4937955;28;19997;-73
2022/07/04 05:40:34;;;;;;;;;;;;;;;;;;4942435;28;19945;-72
2022/07/04 05:43:01;;;;;;;;;;;;;;;;;;4937083;28;19926;-72
2022/07/04 05:45:29;;;;;;;;;;;;;;;;;;4937029;28;19925;-72
2022/07/04 05:47:55;;;;;;;;;;;;;;;;;;4926786;28;19984;-71
2022/07/04 05:50:21;;;;;;;;;;;;;;;;;;4934976;28;19914;-71
2022/07/04 05:52:47;;;;;;;;;;;;;;;;;;4940627;28;19910;-72
2022/07/04 05:55:17;;;;;;;;;;;;;;;;;;4938002;28;19913;-72
2022/07/04 05:57:43;;;;;;;;;;;;;;;;;;4942707;28;20437;-72
2022/07/04 06:00:11;;;;;;;;;;;;;;;;;;4919974;28;20376;-72
2022/07/04 06:02:39;;;;;;;;;;;;;;;;;;4939829;28;19949;-72
2022/07/04 06:05:06;;;;;;;;;;;;;;;;;;4941586;28;19923;-72
2022/07/04 06:07:33;;;;;;;;;;;;;;;;;;4938551;28;20162;-72
2022/07/04 06:10:00;;;;;;;;;;;;;;;;;;4922877;28;19914;-72
2022/07/04 06:12:26;;;;;;;;;;;;;;;;;;4917596;28;22157;-72
2022/07/04 06:14:54;;;;;;;;;;;;;;;;;;4940306;28;19940;-74
2022/07/04 06:17:21;;;;;;;;;;;;;;;;;;4938602;28;19930;-72
2022/07/04 06:19:49;;;;;;;;;;;;;;;;;;4941481;28;19914;-72
2022/07/04 06:22:19;;;;;;;;;;;;;;;;;;4938387;28;19932;-72
2022/07/04 06:24:45;;;;;;;;;;;;;;;;;;4938485;28;19914;-72
2022/07/04 06:27:11;;;;;;;;;;;;;;;;;;4928282;28;19925;-72
2022/07/04 06:29:37;;;;;;;;;;;;;;;;;;4946380;28;19925;-72
2022/07/04 06:32:04;;;;;;;;;;;;;;;;;;4929212;28;20171;-72
2022/07/04 06:37:15;;;;;;;;;;;;;;;;;;4944148;28;20070;-71
2022/07/04 06:39:41;;;;;;;;;;;;;;;;;;4945806;28;19918;-71
2022/07/04 06:42:07;;;;;;;;;;;;;;;;;;4928789;28;19922;-71
2022/07/04 06:44:33;;;;;;;;;;;;;;;;;;4944385;28;19913;-71
2022/07/04 06:47:00;;;;;;;;;;;;;;;;;;4927104;28;19914;-72
2022/07/04 06:49:28;;;;;;;;;;;;;;;;;;4924281;28;19922;-71
2022/07/04 06:51:55;;;;;;;;;;;;;;;;;;4948919;28;19918;-71
2022/07/04 06:54:23;;;;;;;;;;;;;;;;;;4926566;28;19925;-72
2022/07/04 06:56:51;;;;;;;;;;;;;;;;;;4930930;28;20257;-72
2022/07/04 06:59:18;;;;;;;;;;;;;;;;;;4941383;28;20378;-72
2022/07/04 07:01:45;;;;;;;;;;;;;;;;;;4945978;28;20293;-72
2022/07/04 07:04:11;;;;;;;;;;;;;;;;;;4939275;28;19914;-71
2022/07/04 07:06:39;;;;;;;;;;;;;;;;;;4930117;28;19957;-74
2022/07/04 07:09:05;;;;;;;;;;;;;;;;;;4945358;28;19918;-74
2022/07/04 07:11:32;;;;;;;;;;;;;;;;;;4921903;28;19921;-73
2022/07/04 07:14:00;;;;;;;;;;;;;;;;;;4941525;28;19940;-73
2022/07/04 07:16:25;;;;;;;;;;;;;;;;;;4941535;28;20400;-73
2022/07/04 07:18:54;;;;;;;;;;;;;;;;;;4947856;28;19914;-73
2022/07/04 07:21:21;;;;;;;;;;;;;;;;;;4942265;28;20647;-74
2022/07/04 07:23:47;;;;;;;;;;;;;;;;;;4926989;28;20328;-72
2022/07/04 07:26:14;;;;;;;;;;;;;;;;;;4935454;28;19914;-73
2022/07/04 07:28:41;;;;;;;;;;;;;;;;;;4940778;28;19918;-73
2022/07/04 07:31:07;;;;;;;;;;;;;;;;;;4917118;28;19957;-73
2022/07/04 07:33:33;;;;;;;;;;;;;;;;;;4927286;28;20424;-73
2022/07/04 07:36:00;;;;;;;;;;;;;;;;;;4939615;28;20207;-74
2022/07/04 07:38:28;;;;;;;;;;;;;;;;;;4937146;28;23071;-74
2022/07/04 07:40:54;;;;;;;;;;;;;;;;;;4931452;28;20445;-73
2022/07/04 07:43:22;;;;;;;;;;;;;;;;;;4936059;28;20009;-75
2022/07/04 07:45:48;;;;;;;;;;;;;;;;;;4936214;28;20931;-73
2022/07/04 07:48:14;;;;;;;;;;;;;;;;;;4932926;28;19926;-73
2022/07/04 07:50:41;;;;;;;;;;;;;;;;;;4919692;28;19949;-73
2022/07/04 07:53:08;;;;;;;;;;;;;;;;;;4931827;28;20353;-72
2022/07/04 07:55:34;;;;;;;;;;;;;;;;;;4933013;28;19974;-73
2022/07/04 07:58:01;;;;;;;;;;;;;;;;;;4928668;28;20069;-73
2022/07/04 08:00:28;;;;;;;;;;;;;;;;;;4931041;28;19992;-72
2022/07/04 08:05:39;;;;;;;;;;;;;;;;;;4942168;28;19925;-72
2022/07/04 08:08:09;;;;;;;;;;;;;;;;;;4941088;28;20005;-71
2022/07/04 08:10:35;;;;;;;;;;;;;;;;;;4934395;28;20400;-71
2022/07/04 08:13:02;;;;;;;;;;;;;;;;;;4922086;28;19925;-71
2022/07/04 08:15:30;;;;;;;;;;;;;;;;;;4913289;28;19918;-72
2022/07/04 08:17:56;;;;;;;;;;;;;;;;;;4934181;28;20333;-73
2022/07/04 08:20:23;;;;;;;;;;;;;;;;;;4931103;28;19914;-72
2022/07/04 08:22:50;;;;;;;;;;;;;;;;;;4915336;28;19922;-76
2022/07/04 08:25:17;;;;;;;;;;;;;;;;;;4934333;28;20435;-75
2022/07/04 08:27:43;;;;;;;;;;;;;;;;;;4940626;28;20009;-75
2022/07/04 08:30:10;;;;;;;;;;;;;;;;;;4932565;28;19918;-75
2022/07/04 08:32:36;;;;;;;;;;;;;;;;;;4936890;28;19915;-74
2022/07/04 08:35:02;;;;;;;;;;;;;;;;;;4918532;28;19925;-76
2022/07/04 08:37:28;;;;;;;;;;;;;;;;;;4931298;28;19921;-75
2022/07/04 08:39:54;;;;;;;;;;;;;;;;;;4937671;28;20435;-75
2022/07/04 08:42:21;;;;;;;;;;;;;;;;;;4929922;28;20325;-75
2022/07/04 08:44:47;;;;;;;;;;;;;;;;;;4934843;28;19914;-76
2022/07/04 08:47:15;;;;;;;;;;;;;;;;;;4935390;28;19914;-76
2022/07/04 08:49:41;;;;;;;;;;;;;;;;;;4916786;28;20637;-76
2022/07/04 08:52:08;;;;;;;;;;;;;;;;;;4918835;28;19915;-76
2022/07/04 09:00:03;;;;;;;;;;;;;;;;;;4937013;28;19924;-76
2022/07/04 09:02:31;;;;;;;;;;;;;;;;;;4932521;28;20728;-75
2022/07/04 09:04:58;;;;;;;;;;;;;;;;;;4936817;28;19968;-75
2022/07/04 09:07:25;;;;;;;;;;;;;;;;;;4932014;28;20172;-76
2022/07/04 09:09:51;;;;;;;;;;;;;;;;;;4903493;28;20266;-77
2022/07/04 09:12:17;;;;;;;;;;;;;;;;;;4932162;28;20269;-77
2022/07/04 09:14:44;;;;;;;;;;;;;;;;;;4919940;28;19920;-77
2022/07/04 09:17:10;;;;;;;;;;;;;;;;;;4935919;28;19914;-76
2022/07/04 09:19:37;;;;;;;;;;;;;;;;;;4938119;28;19914;-77
2022/07/04 09:22:04;;;;;;;;;;;;;;;;;;4923496;28;20005;-74
2022/07/04 09:24:31;;;;;;;;;;;;;;;;;;4934010;28;19948;-77
2022/07/04 09:26:58;;;;;;;;;;;;;;;;;;4936082;28;20286;-77
2022/07/04 09:29:25;;;;;;;;;;;;;;;;;;4910097;28;20078;-76
2022/07/04 09:31:51;;;;;;;;;;;;;;;;;;4930250;28;19918;-76
2022/07/04 09:34:19;;;;;;;;;;;;;;;;;;4930647;28;21371;-75
2022/07/04 09:36:46;;;;;;;;;;;;;;;;;;4935035;28;19976;-75
2022/07/04 09:39:14;;;;;;;;;;;;;;;;;;4893664;28;19949;-76
2022/07/04 09:41:41;;;;;;;;;;;;;;;;;;4900002;28;19930;-76
2022/07/04 09:44:07;;;;;;;;;;;;;;;;;;4918045;28;20215;-76
2022/07/04 09:46:34;;;;;;;;;;;;;;;;;;4931610;28;20408;-75
2022/07/04 09:49:01;;;;;;;;;;;;;;;;;;4933804;28;19914;-75
2022/07/04 09:51:31;;;;;;;;;;;;;;;;;;4936787;28;19956;-75
2022/07/04 09:53:57;;;;;;;;;;;;;;;;;;4944846;28;19918;-76
2022/07/04 09:56:24;;;;;;;;;;;;;;;;;;4940313;28;20219;-76
2022/07/04 09:58:50;;;;;;;;;;;;;;;;;;4919668;28;19949;-75
2022/07/04 10:01:16;;;;;;;;;;;;;;;;;;4919157;28;20012;-76
2022/07/04 10:03:43;;;;;;;;;;;;;;;;;;4946261;28;20077;-76
2022/07/04 10:06:10;;;;;;;;;;;;;;;;;;4946958;28;19954;-76
2022/07/04 10:08:36;;;;;;;;;;;;;;;;;;4932114;28;19914;-76
2022/07/04 10:11:04;;;;;;;;;;;;;;;;;;4944208;28;19921;-76
2022/07/04 10:13:30;;;;;;;;;;;;;;;;;;4939229;28;19921;-77
2022/07/04 10:15:57;;;;;;;;;;;;;;;;;;4908538;28;20404;-75
2022/07/04 10:18:23;;;;;;;;;;;;;;;;;;4895569;28;19921;-77
2022/07/04 10:20:51;;;;;;;;;;;;;;;;;;4900878;28;19921;-76
2022/07/04 10:23:18;;;;;;;;;;;;;;;;;;4886115;28;19953;-77
2022/07/04 10:25:45;;;;;;;;;;;;;;;;;;4901261;28;19921;-76
2022/07/04 10:28:11;;;;;;;;;;;;;;;;;;4896219;28;19914;-76
2022/07/04 10:30:39;;;;;;;;;;;;;;;;;;4899422;28;20349;-76
2022/07/04 10:33:09;;;;;;;;;;;;;;;;;;4904056;28;19914;-76
2022/07/04 10:35:40;;;;;;;;;;;;;;;;;;4903713;28;20205;-76
2022/07/04 10:38:07;;;;;;;;;;;;;;;;;;4903759;28;19929;-76
2022/07/04 10:40:35;;;;;;;;;;;;;;;;;;4898527;28;19949;-76
2022/07/04 10:43:01;;;;;;;;;;;;;;;;;;4888950;28;19929;-77
2022/07/04 10:45:28;;;;;;;;;;;;;;;;;;4896264;28;19968;-76
2022/07/04 10:47:58;;;;;;;;;;;;;;;;;;4898495;28;19917;-76
2022/07/04 10:50:27;;;;;;;;;;;;;;;;;;4897272;28;20638;-78
2022/07/04 10:52:53;;;;;;;;;;;;;;;;;;4924937;28;20451;-76
2022/07/04 10:55:20;;;;;;;;;;;;;;;;;;4941477;28;19921;-76
2022/07/04 10:57:46;;;;;;;;;;;;;;;;;;4930737;28;19917;-76
2022/07/04 11:00:14;;;;;;;;;;;;;;;;;;4942912;28;19918;-76
2022/07/04 11:02:40;;;;;;;;;;;;;;;;;;4925180;28;20175;-76
2022/07/04 11:05:06;;;;;;;;;;;;;;;;;;4944895;28;20301;-76
2022/07/04 11:07:34;;;;;;;;;;;;;;;;;;4923123;28;19914;-75
2022/07/04 11:10:01;;;;;;;;;;;;;;;;;;4929181;28;19914;-76
2022/07/04 11:12:27;;;;;;;;;;;;;;;;;;4946048;28;19918;-76
2022/07/04 11:14:53;;;;;;;;;;;;;;;;;;4948017;28;19924;-76
2022/07/04 11:17:20;;;;;;;;;;;;;;;;;;4942553;28;19914;-75
2022/07/04 11:19:48;;;;;;;;;;;;;;;;;;4928992;28;19921;-75
2022/07/04 11:22:15;;;;;;;;;;;;;;;;;;4942794;28;19972;-76
2022/07/04 11:24:41;;;;;;;;;;;;;;;;;;4946409;28;19914;-77
2022/07/04 11:27:10;;;;;;;;;;;;;;;;;;4943845;28;20493;-77
2022/07/04 11:29:38;;;;;;;;;;;;;;;;;;4935061;28;19945;-77
2022/07/04 11:32:07;;;;;;;;;;;;;;;;;;4947653;28;20301;-77
2022/07/04 11:34:35;;;;;;;;;;;;;;;;;;4949205;28;19917;-77
2022/07/04 11:37:01;;;;;;;;;;;;;;;;;;4927327;28;19956;-77
2022/07/04 11:39:27;;;;;;;;;;;;;;;;;;4909530;28;20057;-77
2022/07/04 11:47:22;;;;;;;;;;;;;;;;;;4928081;28;19925;-76
2022/07/04 11:49:48;;;;;;;;;;;;;;;;;;4911415;28;19915;-76
2022/07/04 11:52:14;;;;;;;;;;;;;;;;;;4914471;28;20417;-76
2022/07/04 11:54:40;;;;;;;;;;;;;;;;;;4908257;28;20052;-76
2022/07/04 11:57:06;;;;;;;;;;;;;;;;;;4927393;28;19914;-76
2022/07/04 11:59:32;;;;;;;;;;;;;;;;;;4910414;28;19918;-77
2022/07/04 12:01:59;;;;;;;;;;;;;;;;;;4927207;28;19914;-76
2022/07/04 12:04:27;;;;;;;;;;;;;;;;;;4912994;28;19922;-76
2022/07/04 12:06:53;;;;;;;;;;;;;;;;;;4923312;28;20415;-75
2022/07/04 12:09:21;;;;;;;;;;;;;;;;;;4922910;28;20064;-75
2022/07/04 12:11:47;;;;;;;;;;;;;;;;;;4930377;28;19918;-75
2022/07/04 12:14:14;;;;;;;;;;;;;;;;;;4915883;28;19942;-75
2022/07/04 12:16:43;;;;;;;;;;;;;;;;;;4904026;28;20380;-76
2022/07/04 12:19:10;;;;;;;;;;;;;;;;;;4924591;28;19914;-76
2022/07/04 12:21:36;;;;;;;;;;;;;;;;;;4926852;28;19922;-75
2022/07/04 12:24:05;;;;;;;;;;;;;;;;;;4924599;28;19922;-76
2022/07/04 12:26:32;;;;;;;;;;;;;;;;;;4924151;28;19918;-76
2022/07/04 12:29:01;;;;;;;;;;;;;;;;;;4923900;28;19997;-75
2022/07/04 12:31:27;;;;;;;;;;;;;;;;;;4938412;28;22176;-75
2022/07/04 12:33:54;;;;;;;;;;;;;;;;;;4943649;28;19922;-76
2022/07/04 12:36:21;;;;;;;;;;;;;;;;;;4910394;28;19921;-75
2022/07/04 12:38:48;;;;;;;;;;;;;;;;;;4910408;28;19920;-76
2022/07/04 12:41:19;;;;;;;;;;;;;;;;;;4941974;28;19957;-76
2022/07/04 12:43:50;;;;;;;;;;;;;;;;;;4923887;28;19961;-76
2022/07/04 12:46:18;;;;;;;;;;;;;;;;;;4944262;28;19920;-76
2022/07/04 12:48:44;;;;;;;;;;;;;;;;;;4929227;28;20353;-77
2022/07/04 12:51:11;;;;;;;;;;;;;;;;;;4941233;28;19977;-78
2022/07/04 12:53:39;;;;;;;;;;;;;;;;;;4947634;28;19948;-76
2022/07/04 12:56:06;;;;;;;;;;;;;;;;;;4938420;28;20425;-76
2022/07/04 12:58:32;;;;;;;;;;;;;;;;;;4941164;28;19914;-75
2022/07/04 13:01:00;;;;;;;;;;;;;;;;;;4941232;28;19914;-75
2022/07/04 13:03:26;;;;;;;;;;;;;;;;;;4936229;28;23412;-75
2022/07/04 13:05:56;;;;;;;;;;;;;;;;;;4939105;28;19937;-75
2022/07/04 13:08:24;;;;;;;;;;;;;;;;;;4925817;28;19924;-77
2022/07/04 13:12:24;;;;;;;;;;;;;;;;;;4938583;28;19915;-75
2022/07/04 13:13:40;;;;;;;;;;;;;;;;;;4908371;28;19918;-79
2022/07/04 13:16:09;;;;;;;;;;;;;;;;;;4893721;28;19914;-74
2022/07/04 13:18:36;;;;;;;;;;;;;;;;;;4899563;28;20341;-73
2022/07/04 13:21:03;;;;;;;;;;;;;;;;;;4900306;28;20641;-73
2022/07/04 13:23:30;;;;;;;;;;;;;;;;;;4899566;28;19924;-72
2022/07/04 13:26:01;;;;;;;;;;;;;;;;;;4900048;28;20500;-72
2022/07/04 13:28:36;;;;;;;;;;;;;;;;;;4897630;28;20090;-72
2022/07/04 13:31:02;;;;;;;;;;;;;;;;;;4898126;28;20408;-72
2022/07/04 13:33:29;;;;;;;;;;;;;;;;;;4901567;28;20208;-73
2022/07/04 13:35:56;;;;;;;;;;;;;;;;;;4902050;28;19977;-72
2022/07/04 13:38:23;;;;;;;;;;;;;;;;;;4898217;28;20449;-72
2022/07/04 13:40:50;;;;;;;;;;;;;;;;;;4901967;28;19918;-73
2022/07/04 13:43:17;;;;;;;;;;;;;;;;;;4878709;28;19923;-72
2022/07/04 13:45:46;;;;;;;;;;;;;;;;;;4899277;28;19921;-73
2022/07/04 13:48:14;;;;;;;;;;;;;;;;;;4899337;28;20634;-73
2022/07/04 13:50:41;;;;;;;;;;;;;;;;;;4944712;28;19921;-73
2022/07/04 13:53:07;;;;;;;;;;;;;;;;;;4942898;28;20322;-73
2022/07/04 13:55:37;;;;;;;;;;;;;;;;;;4929262;28;19918;-73
2022/07/04 13:58:04;;;;;;;;;;;;;;;;;;4941204;28;20016;-73
2022/07/04 14:00:30;;;;;;;;;;;;;;;;;;4939684;28;19997;-73
2022/07/04 14:02:58;;;;;;;;;;;;;;;;;;4923957;28;19922;-72
2022/07/04 14:05:28;;;;;;;;;;;;;;;;;;4943201;28;20383;-73
2022/07/04 14:07:54;;;;;;;;;;;;;;;;;;4938573;28;20004;-73
2022/07/04 14:10:20;;;;;;;;;;;;;;;;;;4943565;28;19929;-73
2022/07/04 14:12:47;;;;;;;;;;;;;;;;;;4946916;28;19914;-72
2022/07/04 14:15:14;;;;;;;;;;;;;;;;;;4921358;28;20565;-72
2022/07/04 14:17:42;;;;;;;;;;;;;;;;;;4946823;28;19976;-72
2022/07/04 14:20:08;;;;;;;;;;;;;;;;;;4936304;28;19914;-75
2022/07/04 14:22:34;;;;;;;;;;;;;;;;;;4941118;28;20013;-72
2022/07/04 14:25:01;;;;;;;;;;;;;;;;;;4946507;28;19939;-72
2022/07/04 14:27:28;;;;;;;;;;;;;;;;;;4933074;28;20207;-72
2022/07/04 14:29:55;;;;;;;;;;;;;;;;;;4947357;28;19933;-72
2022/07/04 14:32:22;;;;;;;;;;;;;;;;;;4944168;28;19918;-73
2022/07/04 14:34:49;;;;;;;;;;;;;;;;;;4925640;28;19913;-73
2022/07/04 14:37:26;;;;;;;;;;;;;;;;;;4939288;28;19921;-74
2022/07/04 14:39:52;;;;;;;;;;;;;;;;;;4941235;28;19949;-73
2022/07/04 14:42:20;;;;;;;;;;;;;;;;;;4937360;28;20349;-73
2022/07/04 14:44:48;;;;;;;;;;;;;;;;;;4945777;28;19922;-74
2022/07/04 14:47:35;;;;;;;;;;;;;;;;;;4955730;28;19953;-73
2022/07/04 14:50:05;;;;;;;;;;;;;;;;;;4947432;28;19915;-73
2022/07/04 14:52:33;;;;;;;;;;;;;;;;;;4941379;28;20387;-73
2022/07/04 14:55:07;;;;;;;;;;;;;;;;;;4941504;28;19924;-73
2022/07/04 14:57:33;;;;;;;;;;;;;;;;;;4944884;28;19992;-73
2022/07/04 15:00:00;;;;;;;;;;;;;;;;;;4948760;28;20065;-73
2022/07/04 15:02:27;;;;;;;;;;;;;;;;;;4938064;28;19922;-74
2022/07/04 15:05:14;;;;;;;;;;;;;;;;;;4934760;28;19926;-74
2022/07/04 15:07:46;;;;;;;;;;;;;;;;;;4934792;28;20627;-74
2022/07/04 15:10:13;;;;;;;;;;;;;;;;;;4936109;28;19926;-74
2022/07/04 15:12:39;;;;;;;;;;;;;;;;;;4925530;28;21657;-75
2022/07/04 15:15:05;;;;;;;;;;;;;;;;;;4924847;28;19980;-73
2022/07/04 15:17:35;;;;;;;;;;;;;;;;;;4924556;28;19914;-73
2022/07/04 15:25:40;;;;;;;;;;;;;;;;;;4896557;29;20372;-73
2022/07/04 15:28:06;;;;;;;;;;;;;;;;;;4897129;29;19915;-73
2022/07/04 15:30:34;;;;;;;;;;;;;;;;;;4895157;29;19982;-74
2022/07/04 15:33:00;;;;;;;;;;;;;;;;;;4896317;29;19922;-73
2022/07/04 15:35:28;;;;;;;;;;;;;;;;;;4897260;29;22856;-73
2022/07/04 15:38:15;;;;;;;;;;;;;;;;;;4894948;29;19914;-73
2022/07/04 15:40:42;;;;;;;;;;;;;;;;;;4893335;29;20025;-74
2022/07/04 15:43:08;;;;;;;;;;;;;;;;;;4867100;29;20356;-74
2022/07/04 15:45:35;;;;;;;;;;;;;;;;;;4870592;29;19959;-73
2022/07/04 15:48:02;;;;;;;;;;;;;;;;;;4872026;29;20331;-74
2022/07/04 15:50:30;;;;;;;;;;;;;;;;;;4852834;29;19916;-73
2022/07/04 15:52:57;;;;;;;;;;;;;;;;;;4870917;29;20378;-73
2022/07/04 15:55:23;;;;;;;;;;;;;;;;;;4867831;29;19931;-73
2022/07/04 15:57:49;;;;;;;;;;;;;;;;;;4853928;29;19915;-73
2022/07/04 16:00:15;;;;;;;;;;;;;;;;;;4878361;29;19993;-73
2022/07/04 16:02:59;;;;;;;;;;;;;;;;;;4896280;29;20468;-73
2022/07/04 16:05:28;;;;;;;;;;;;;;;;;;4870203;29;19957;-74
2022/07/04 16:07:55;;;;;;;;;;;;;;;;;;4889096;29;20606;-73
2022/07/04 16:10:23;;;;;;;;;;;;;;;;;;4889000;29;19931;-73
2022/07/04 16:12:50;;;;;;;;;;;;;;;;;;4909166;29;19918;-73
2022/07/04 16:15:17;;;;;;;;;;;;;;;;;;4904838;29;19922;-72
2022/07/04 16:17:44;;;;;;;;;;;;;;;;;;4892910;29;19957;-72
2022/07/04 16:20:11;;;;;;;;;;;;;;;;;;4886843;29;20429;-72
2022/07/04 16:22:39;;;;;;;;;;;;;;;;;;4904556;29;19950;-72
2022/07/04 16:25:05;;;;;;;;;;;;;;;;;;4913755;28;19925;-73
2022/07/04 16:27:33;;;;;;;;;;;;;;;;;;4928027;28;19973;-72
2022/07/04 16:30:01;;;;;;;;;;;;;;;;;;4923702;28;19950;-74
2022/07/04 16:32:48;;;;;;;;;;;;;;;;;;4930424;28;19985;-72
2022/07/04 16:35:15;;;;;;;;;;;;;;;;;;4939283;28;19914;-71
2022/07/04 16:37:46;;;;;;;;;;;;;;;;;;4951049;28;20273;-71
2022/07/04 16:40:16;;;;;;;;;;;;;;;;;;4947584;28;19914;-72
2022/07/04 16:42:43;;;;;;;;;;;;;;;;;;4931100;28;19926;-72
2022/07/04 16:45:10;;;;;;;;;;;;;;;;;;4939700;28;20364;-72
2022/07/04 16:47:37;;;;;;;;;;;;;;;;;;4949101;28;20292;-72
2022/07/04 16:50:03;;;;;;;;;;;;;;;;;;4928555;28;19953;-72
2022/07/04 16:52:31;;;;;;;;;;;;;;;;;;4938264;28;20362;-72
2022/07/04 16:54:57;;;;;;;;;;;;;;;;;;4941869;28;20093;-72
2022/07/04 16:57:24;;;;;;;;;;;;;;;;;;4924229;28;19988;-74
2022/07/04 16:59:52;;;;;;;;;;;;;;;;;;4943012;28;20009;-74
2022/07/04 17:02:19;;;;;;;;;;;;;;;;;;4927082;28;20345;-71
2022/07/04 17:04:47;;;;;;;;;;;;;;;;;;4945120;28;19991;-71
2022/07/04 17:07:17;;;;;;;;;;;;;;;;;;4942181;28;20379;-71
2022/07/04 17:09:54;;;;;;;;;;;;;;;;;;4949427;28;19913;-71
2022/07/04 17:12:21;;;;;;;;;;;;;;;;;;4948808;28;19964;-73
2022/07/04 17:14:49;;;;;;;;;;;;;;;;;;4944023;28;19934;-74
2022/07/04 17:17:19;;;;;;;;;;;;;;;;;;4927992;28;20077;-72